createdAt,value
2022-12-16T00:01:16.051Z,18.63
2022-12-16T00:03:49.225Z,18.25
2022-12-16T00:06:22.234Z,19.70
2022-12-16T00:08:51.991Z,18.08
2022-12-16T00:11:20.876Z,19.40
2022-12-16T00:13:50.665Z,17.55
2022-12-16T00:16:21.967Z,20.48
2022-12-16T00:18:51.792Z,19.65
2022-12-16T00:21:21.045Z,19.30
2022-12-16T00:23:49.446Z,18.88
2022-12-16T00:26:17.751Z,15.50
2022-12-16T00:28:46.113Z,19.98
2022-12-16T00:31:16.073Z,18.75
2022-12-16T00:33:45.631Z,17.13
2022-12-16T00:36:13.885Z,17.17
2022-12-16T00:38:42.220Z,18.55
2022-12-16T00:41:10.616Z,20.83
2022-12-16T00:43:38.936Z,18.98
2022-12-16T00:46:07.394Z,18.25
2022-12-16T00:48:37.159Z,21.02
2022-12-16T00:51:05.634Z,19.33
2022-12-16T00:53:34.349Z,19.40
2022-12-16T00:56:05.561Z,19.27
2022-12-16T01:01:02.464Z,20.42
2022-12-16T01:03:31.316Z,16.95
2022-12-16T01:06:01.349Z,18.98
2022-12-16T01:08:29.627Z,15.97
2022-12-16T01:10:58.965Z,16.73
2022-12-16T01:13:27.892Z,19.02
2022-12-16T01:15:56.525Z,21.48
2022-12-16T01:18:24.838Z,18.50
2022-12-16T01:20:53.298Z,16.98
2022-12-16T01:23:24.889Z,20.23
2022-12-16T01:25:58.706Z,19.85
2022-12-16T01:28:27.021Z,17.67
2022-12-16T01:31:01.738Z,19.48
2022-12-16T01:33:31.440Z,17.88
2022-12-16T01:36:06.232Z,19.13
2022-12-16T01:38:36.744Z,20.30
2022-12-16T01:41:06.744Z,20.75
2022-12-16T01:43:38.390Z,16.00
2022-12-16T01:46:13.973Z,20.48
2022-12-16T01:48:48.582Z,18.00
2022-12-16T01:51:27.089Z,21.27
2022-12-16T01:54:00.404Z,19.17
2022-12-16T01:56:32.358Z,19.42
2022-12-16T01:59:02.000Z,17.17
2022-12-16T02:01:30.582Z,19.92
2022-12-16T02:04:03.040Z,18.38
2022-12-16T02:06:31.884Z,17.95
2022-12-16T02:09:06.430Z,16.17
2022-12-16T02:11:57.838Z,18.65
2022-12-16T02:15:17.395Z,16.63
2022-12-16T02:17:56.444Z,18.23
2022-12-16T02:21:15.840Z,16.88
2022-12-16T02:24:39.173Z,17.25
2022-12-16T02:27:40.867Z,17.80
2022-12-16T02:31:09.388Z,16.42
2022-12-16T02:33:51.765Z,16.48
2022-12-16T02:36:37.488Z,17.15
2022-12-16T02:39:13.719Z,17.02
2022-12-16T02:41:48.586Z,17.70
2022-12-16T02:44:21.059Z,16.13
2022-12-16T02:46:55.614Z,15.13
2022-12-16T02:49:52.584Z,14.43
2022-12-16T02:52:25.223Z,14.63
2022-12-16T02:54:57.895Z,14.88
2022-12-16T02:57:53.214Z,13.75
2022-12-16T03:00:23.989Z,14.98
2022-12-16T03:02:58.910Z,15.25
2022-12-16T03:05:32.597Z,15.38
2022-12-16T03:08:05.033Z,14.50
2022-12-16T03:10:38.903Z,13.68
2022-12-16T03:13:08.922Z,12.35
2022-12-16T03:15:38.370Z,15.27
2022-12-16T03:18:10.703Z,13.85
2022-12-16T03:20:45.649Z,14.57
2022-12-16T03:23:21.264Z,12.23
2022-12-16T03:25:52.315Z,12.75
2022-12-16T03:31:06.361Z,13.70
2022-12-16T03:33:42.042Z,14.32
2022-12-16T03:36:18.161Z,14.57
2022-12-16T03:38:48.451Z,13.63
2022-12-16T03:41:18.560Z,14.85
2022-12-16T03:43:48.310Z,13.30
2022-12-16T03:46:18.307Z,13.70
2022-12-16T03:48:49.020Z,13.53
2022-12-16T03:51:19.635Z,14.48
2022-12-16T03:53:48.246Z,12.27
2022-12-16T03:56:16.878Z,13.07
2022-12-16T03:58:47.039Z,13.65
2022-12-16T04:01:15.940Z,12.55
2022-12-16T04:03:44.305Z,13.02
2022-12-16T04:06:12.673Z,12.63
2022-12-16T04:08:42.278Z,14.80
2022-12-16T04:11:27.755Z,13.35
2022-12-16T04:14:13.493Z,12.18
2022-12-16T04:16:59.203Z,14.23
2022-12-16T04:19:49.039Z,14.02
2022-12-16T04:22:40.042Z,16.10
2022-12-16T04:25:15.484Z,14.25
2022-12-16T04:27:47.197Z,13.73
2022-12-16T04:30:20.284Z,14.48
2022-12-16T04:33:09.182Z,16.23
2022-12-16T04:35:55.281Z,12.85
2022-12-16T04:38:41.852Z,15.23
2022-12-16T04:41:29.755Z,16.55
2022-12-16T04:44:16.002Z,14.48
2022-12-16T04:47:02.082Z,14.90
2022-12-16T04:49:48.175Z,13.88
2022-12-16T04:52:34.652Z,14.68
2022-12-16T04:55:20.621Z,15.05
2022-12-16T04:58:09.790Z,17.48
2022-12-16T05:00:56.052Z,14.00
2022-12-16T05:03:41.849Z,14.82
2022-12-16T05:06:28.169Z,15.85
2022-12-16T05:09:14.120Z,15.40
2022-12-16T05:12:00.403Z,15.20
2022-12-16T05:14:47.678Z,15.32
2022-12-16T05:17:30.238Z,13.07
2022-12-16T05:20:21.268Z,15.75
2022-12-16T05:23:06.752Z,17.13
2022-12-16T05:25:52.843Z,13.88
2022-12-16T05:28:38.742Z,14.63
2022-12-16T05:31:27.677Z,15.23
2022-12-16T05:34:13.381Z,14.52
2022-12-16T05:36:59.016Z,16.38
2022-12-16T05:39:44.782Z,17.00
2022-12-16T05:42:30.399Z,16.42
2022-12-16T05:45:16.047Z,15.05
2022-12-16T05:48:06.633Z,16.15
2022-12-16T05:50:52.400Z,15.23
2022-12-16T05:53:38.086Z,16.17
2022-12-16T05:56:24.658Z,16.38
2022-12-16T05:59:10.680Z,14.90
2022-12-16T06:01:56.460Z,14.93
2022-12-16T06:04:43.757Z,15.10
2022-12-16T06:07:29.479Z,16.20
2022-12-16T06:10:15.307Z,14.38
2022-12-16T06:13:05.145Z,14.55
2022-12-16T06:15:50.900Z,14.10
2022-12-16T06:18:36.872Z,15.38
2022-12-16T06:21:24.037Z,14.88
2022-12-16T06:24:10.016Z,13.27
2022-12-16T06:26:55.708Z,13.38
2022-12-16T06:29:41.392Z,13.13
2022-12-16T06:32:27.060Z,14.65
2022-12-16T06:35:15.756Z,15.45
2022-12-16T06:38:06.078Z,14.20
2022-12-16T06:40:51.685Z,14.75
2022-12-16T06:43:40.958Z,16.23
2022-12-16T06:46:26.809Z,13.45
2022-12-16T06:49:12.750Z,13.15
2022-12-16T06:51:58.449Z,14.30
2022-12-16T06:54:45.477Z,14.63
2022-12-16T06:57:31.325Z,14.98
2022-12-16T07:00:17.269Z,14.27
2022-12-16T07:03:03.020Z,14.77
2022-12-16T07:05:49.019Z,13.45
2022-12-16T07:08:34.883Z,13.07
2022-12-16T07:11:24.380Z,14.98
2022-12-16T07:14:09.935Z,14.88
2022-12-16T07:16:52.199Z,14.93
2022-12-16T07:19:37.857Z,12.68
2022-12-16T07:22:23.786Z,13.50
2022-12-16T07:25:09.785Z,14.50
2022-12-16T07:27:56.735Z,13.63
2022-12-16T07:30:42.585Z,13.05
2022-12-16T07:33:28.215Z,12.98
2022-12-16T07:36:14.184Z,13.68
2022-12-16T07:38:59.963Z,14.52
2022-12-16T07:41:45.624Z,13.27
2022-12-16T07:44:32.614Z,14.13
2022-12-16T07:47:18.469Z,12.63
2022-12-16T07:50:04.475Z,14.73
2022-12-16T07:52:50.501Z,13.18
2022-12-16T07:55:36.503Z,13.35
2022-12-16T07:58:22.066Z,14.02
2022-12-16T08:01:09.907Z,15.25
2022-12-16T08:03:56.100Z,14.48
2022-12-16T08:06:42.371Z,14.02
2022-12-16T08:09:28.202Z,13.48
2022-12-16T08:12:13.931Z,13.75
2022-12-16T08:14:59.746Z,16.08
2022-12-16T08:17:46.903Z,16.33
2022-12-16T08:20:32.866Z,14.30
2022-12-16T08:23:18.641Z,12.25
2022-12-16T08:26:04.533Z,13.45
2022-12-16T08:28:50.080Z,13.90
2022-12-16T08:31:35.828Z,13.45
2022-12-16T08:34:22.860Z,14.65
2022-12-16T08:37:08.621Z,13.23
2022-12-16T08:40:33.778Z,14.48
2022-12-16T08:43:12.626Z,13.38
2022-12-16T08:45:59.397Z,13.07
2022-12-16T08:48:45.295Z,12.95
2022-12-16T08:51:32.720Z,13.35
2022-12-16T08:54:18.617Z,13.85
2022-12-16T08:57:04.197Z,14.02
2022-12-16T08:59:50.085Z,12.35
2022-12-16T09:02:36.757Z,12.65
2022-12-16T09:05:23.445Z,13.93
2022-12-16T09:08:10.809Z,13.68
2022-12-16T09:10:56.738Z,12.15
2022-12-16T09:13:41.899Z,13.95
2022-12-16T09:16:28.056Z,12.45
2022-12-16T09:19:14.155Z,12.68
2022-12-16T09:22:00.087Z,12.77
2022-12-16T09:24:47.286Z,14.77
2022-12-16T09:27:33.153Z,14.75
2022-12-16T09:30:18.982Z,13.68
2022-12-16T09:33:05.180Z,12.18
2022-12-16T09:35:51.399Z,14.35
2022-12-16T09:38:37.152Z,14.05
2022-12-16T09:41:50.203Z,12.88
2022-12-16T09:44:42.948Z,12.05
2022-12-16T09:47:41.582Z,13.65
2022-12-16T09:50:39.433Z,12.55
2022-12-16T09:53:32.409Z,13.80
2022-12-16T09:56:20.176Z,13.48
2022-12-16T09:59:15.002Z,13.60
2022-12-16T10:02:02.507Z,13.23
2022-12-16T10:04:48.424Z,12.93
2022-12-16T10:07:37.783Z,13.13
2022-12-16T10:10:38.768Z,14.30
2022-12-16T10:13:33.195Z,12.95
2022-12-16T10:16:32.535Z,12.93
2022-12-16T10:19:29.879Z,13.57
2022-12-16T10:22:26.396Z,13.48
2022-12-16T10:25:25.036Z,13.38
2022-12-16T10:28:17.525Z,13.65
2022-12-16T10:31:03.530Z,13.65
2022-12-16T10:34:05.585Z,12.75
2022-12-16T10:36:53.818Z,13.20
2022-12-16T10:39:47.913Z,12.73
2022-12-16T10:42:41.414Z,14.00
2022-12-16T10:45:38.409Z,13.32
2022-12-16T10:48:24.324Z,14.02
2022-12-16T10:51:11.487Z,12.20
2022-12-16T10:53:58.964Z,12.52
2022-12-16T10:57:06.454Z,13.48
2022-12-16T10:59:55.478Z,12.70
2022-12-16T11:02:44.845Z,14.10
2022-12-16T11:05:49.382Z,13.98
2022-12-16T11:08:48.227Z,12.65
2022-12-16T11:11:41.000Z,11.98
2022-12-16T11:14:44.072Z,12.43
2022-12-16T11:17:40.038Z,12.93
2022-12-16T11:20:33.206Z,14.85
2022-12-16T11:23:35.615Z,14.45
2022-12-16T11:26:36.013Z,12.35
2022-12-16T11:29:27.826Z,11.98
2022-12-16T11:32:19.869Z,11.90
2022-12-16T11:35:11.982Z,12.73
2022-12-16T11:38:00.227Z,13.88
2022-12-16T11:40:47.940Z,14.07
2022-12-16T11:43:37.692Z,13.60
2022-12-16T11:46:39.467Z,12.65
2022-12-16T11:49:35.274Z,13.25
2022-12-16T11:52:40.207Z,13.40
2022-12-16T11:58:55.691Z,14.18
2022-12-16T12:01:50.412Z,14.48
2022-12-16T12:04:37.098Z,13.50
2022-12-16T12:07:48.931Z,14.75
2022-12-16T12:10:56.518Z,13.10
2022-12-16T12:14:05.126Z,15.18
2022-12-16T12:17:01.439Z,14.70
2022-12-16T12:20:02.441Z,13.77
2022-12-16T12:22:55.094Z,13.73
2022-12-16T12:25:50.764Z,14.05
2022-12-16T12:28:51.666Z,14.88
2022-12-16T12:31:53.660Z,14.75
2022-12-16T12:34:50.677Z,15.30
2022-12-16T12:37:45.470Z,14.55
2022-12-16T12:40:57.369Z,13.18
2022-12-16T12:43:57.572Z,14.80
2022-12-16T12:46:49.690Z,14.30
2022-12-16T12:49:44.611Z,13.10
2022-12-16T12:52:46.340Z,13.80
2022-12-16T12:55:39.661Z,14.57
2022-12-16T12:58:27.058Z,12.55
2022-12-16T13:01:16.989Z,14.68
2022-12-16T13:04:09.740Z,14.77
2022-12-16T13:06:56.748Z,16.15
2022-12-16T13:09:49.369Z,14.57
2022-12-16T13:12:56.017Z,13.98
2022-12-16T13:15:59.913Z,12.30
2022-12-16T13:18:48.773Z,14.23
2022-12-16T13:22:05.796Z,13.05
2022-12-16T13:25:10.038Z,12.73
2022-12-16T13:28:13.793Z,12.38
2022-12-16T13:31:20.155Z,11.70
2022-12-16T13:34:13.155Z,12.15
2022-12-16T13:37:00.505Z,11.93
2022-12-16T13:39:49.393Z,11.15
2022-12-16T13:43:09.900Z,11.70
2022-12-16T13:45:59.506Z,10.33
2022-12-16T13:48:56.491Z,10.48
2022-12-16T13:52:22.837Z,11.88
2022-12-16T13:55:25.057Z,11.68
2022-12-16T13:58:20.450Z,11.68
2022-12-16T14:01:23.444Z,12.82
2022-12-16T14:04:11.315Z,11.48
2022-12-16T14:06:58.638Z,12.07
2022-12-16T14:09:53.163Z,12.52
2022-12-16T14:13:07.168Z,11.88
2022-12-16T14:16:16.261Z,10.52
2022-12-16T14:19:19.349Z,12.77
2022-12-16T14:22:10.008Z,11.25
2022-12-16T14:24:57.799Z,10.25
2022-12-16T14:27:44.517Z,11.85
2022-12-16T14:30:38.789Z,10.77
2022-12-16T14:33:43.850Z,12.02
2022-12-16T14:36:41.480Z,11.68
2022-12-16T14:39:31.611Z,11.40
2022-12-16T14:42:18.586Z,12.10
2022-12-16T14:45:06.786Z,10.75
2022-12-16T14:47:58.795Z,10.57
2022-12-16T14:50:47.730Z,10.88
2022-12-16T14:53:37.332Z,12.30
2022-12-16T14:56:49.299Z,10.45
2022-12-16T14:59:38.246Z,10.30
2022-12-16T15:02:41.271Z,13.00
2022-12-16T15:05:27.281Z,10.00
2022-12-16T15:08:13.226Z,10.20
2022-12-16T15:10:59.324Z,11.20
2022-12-16T15:13:45.957Z,11.20
2022-12-16T15:16:38.707Z,10.52
2022-12-16T15:19:24.980Z,10.23
2022-12-16T15:22:10.768Z,11.27
2022-12-16T15:24:57.686Z,11.38
2022-12-16T15:27:44.187Z,11.18
2022-12-16T15:30:54.015Z,11.60
2022-12-16T15:33:44.015Z,11.45
2022-12-16T15:36:45.852Z,10.82
2022-12-16T15:39:40.697Z,14.68
2022-12-16T15:42:39.716Z,11.85
2022-12-16T15:45:36.160Z,11.25
2022-12-16T15:48:31.694Z,12.52
2022-12-16T15:51:18.499Z,11.30
2022-12-16T15:54:04.208Z,11.13
2022-12-16T15:57:02.291Z,10.75
2022-12-16T15:59:52.337Z,10.82
2022-12-16T16:02:44.768Z,11.45
2022-12-16T16:05:34.177Z,13.38
2022-12-16T16:08:21.377Z,11.40
2022-12-16T16:11:07.215Z,11.50
2022-12-16T16:13:53.093Z,11.35
2022-12-16T16:16:38.891Z,11.75
2022-12-16T16:19:31.015Z,11.20
2022-12-16T16:22:16.745Z,10.77
2022-12-16T16:25:03.597Z,11.98
2022-12-16T16:27:49.720Z,10.82
2022-12-16T16:30:35.708Z,11.25
2022-12-16T16:33:21.267Z,10.77
2022-12-16T16:36:07.205Z,12.38
2022-12-16T16:38:53.092Z,10.95
2022-12-16T16:41:40.096Z,11.38
2022-12-16T16:44:26.105Z,10.38
2022-12-16T16:47:12.362Z,11.27
2022-12-16T16:50:02.040Z,10.15
2022-12-16T16:52:48.685Z,8.80
2022-12-16T16:55:36.980Z,11.70
2022-12-16T16:58:40.571Z,10.98
2022-12-16T17:01:30.471Z,11.45
2022-12-16T17:04:16.685Z,9.98
2022-12-16T17:07:02.644Z,11.50
2022-12-16T17:09:53.903Z,10.27
2022-12-16T17:12:44.729Z,11.65
2022-12-16T17:15:38.343Z,10.98
2022-12-16T17:18:24.561Z,10.73
2022-12-16T17:21:10.828Z,10.10
2022-12-16T17:23:57.202Z,10.75
2022-12-16T17:26:45.482Z,11.02
2022-12-16T17:29:38.600Z,12.30
2022-12-16T17:32:26.631Z,10.95
2022-12-16T17:35:13.073Z,12.02
2022-12-16T17:37:58.822Z,10.65
2022-12-16T17:40:44.498Z,11.88
2022-12-16T17:43:30.566Z,11.85
2022-12-16T17:46:19.952Z,11.15
2022-12-16T17:49:11.476Z,12.27
2022-12-16T17:51:56.932Z,11.07
2022-12-16T17:54:42.572Z,12.05
2022-12-16T17:57:28.863Z,12.45
2022-12-16T18:00:14.504Z,11.38
2022-12-16T18:03:00.738Z,10.77
2022-12-16T18:05:47.903Z,11.98
2022-12-16T18:08:33.495Z,10.63
2022-12-16T18:11:19.433Z,11.18
2022-12-16T18:14:04.945Z,11.20
2022-12-16T18:16:50.618Z,11.27
2022-12-16T18:19:36.743Z,12.13
2022-12-16T18:22:23.981Z,10.65
2022-12-16T18:25:17.888Z,11.93
2022-12-16T18:28:03.599Z,11.95
2022-12-16T18:30:49.476Z,11.25
2022-12-16T18:33:35.672Z,12.45
2022-12-16T18:36:22.167Z,11.52
2022-12-16T18:39:09.169Z,10.57
2022-12-16T18:42:00.478Z,11.65
2022-12-16T18:44:46.381Z,10.10
2022-12-16T18:47:32.373Z,12.68
2022-12-16T18:50:22.280Z,12.05
2022-12-16T18:53:11.001Z,12.10
2022-12-16T18:55:58.266Z,10.68
2022-12-16T18:58:52.113Z,13.05
2022-12-16T19:01:38.538Z,11.23
2022-12-16T19:04:24.453Z,11.07
2022-12-16T19:07:10.303Z,11.70
2022-12-16T19:09:56.104Z,11.65
2022-12-16T19:12:44.213Z,12.23
2022-12-16T19:15:30.024Z,11.82
2022-12-16T19:18:16.022Z,11.77
2022-12-16T19:21:01.599Z,11.07
2022-12-16T19:23:47.504Z,11.75
2022-12-16T19:26:33.397Z,12.80
2022-12-16T19:29:20.819Z,11.30
2022-12-16T19:32:06.760Z,11.27
2022-12-16T19:34:52.544Z,10.05
2022-12-16T19:37:39.138Z,11.52
2022-12-16T19:40:27.393Z,10.98
2022-12-16T19:43:13.185Z,12.23
2022-12-16T19:46:00.095Z,11.75
2022-12-16T19:48:46.138Z,10.77
2022-12-16T19:51:31.604Z,10.93
2022-12-16T19:54:17.423Z,10.40
2022-12-16T19:57:03.098Z,10.95
2022-12-16T19:59:48.558Z,10.50
2022-12-16T20:02:35.667Z,11.50
2022-12-16T20:05:21.877Z,12.23
2022-12-16T20:08:07.696Z,11.48
2022-12-16T20:10:56.228Z,12.75
2022-12-16T20:13:42.317Z,11.60
2022-12-16T20:16:30.442Z,10.55
2022-12-16T20:19:22.705Z,11.55
2022-12-16T20:22:11.810Z,11.52
2022-12-16T20:24:59.232Z,10.65
2022-12-16T20:27:45.030Z,10.48
2022-12-16T20:30:30.930Z,10.60
2022-12-16T20:33:16.821Z,13.35
2022-12-16T20:36:14.305Z,11.23
2022-12-16T20:39:00.297Z,11.93
2022-12-16T20:41:46.041Z,11.90
2022-12-16T20:44:31.896Z,10.30
2022-12-16T20:47:17.774Z,12.25
2022-12-16T20:50:03.679Z,13.13
2022-12-16T20:52:50.909Z,10.30
2022-12-16T20:55:37.328Z,10.98
2022-12-16T20:58:23.136Z,11.25
2022-12-16T21:01:11.001Z,13.43
2022-12-16T21:03:57.079Z,12.27
2022-12-16T21:06:43.312Z,10.68
2022-12-16T21:09:30.291Z,11.65
2022-12-16T21:12:16.062Z,12.20
2022-12-16T21:15:01.654Z,11.32
2022-12-16T21:17:47.275Z,12.25
2022-12-16T21:20:32.908Z,11.90
2022-12-16T21:23:19.552Z,12.85
2022-12-16T21:26:06.939Z,11.55
2022-12-16T21:28:52.869Z,12.80
2022-12-16T21:31:42.181Z,12.30
2022-12-16T21:34:27.942Z,11.02
2022-12-16T21:37:13.858Z,12.13
2022-12-16T21:39:59.469Z,11.55
2022-12-16T21:42:46.533Z,11.75
2022-12-16T21:45:32.523Z,13.02
2022-12-16T21:48:18.498Z,11.55
2022-12-16T21:51:10.709Z,12.85
2022-12-16T21:53:56.804Z,12.65
2022-12-16T21:56:42.874Z,12.15
2022-12-16T21:59:29.880Z,11.80
2022-12-16T22:02:15.723Z,11.93
2022-12-16T22:05:01.242Z,11.80
2022-12-16T22:07:47.021Z,12.43
2022-12-16T22:10:33.075Z,12.23
2022-12-16T22:13:18.942Z,12.98
2022-12-16T22:16:15.593Z,12.85
2022-12-16T22:19:07.156Z,11.75
2022-12-16T22:21:49.345Z,11.68
2022-12-16T22:24:34.948Z,12.45
2022-12-16T22:27:20.717Z,11.45
2022-12-16T22:30:06.624Z,12.65
2022-12-16T22:32:53.780Z,13.60
2022-12-16T22:35:42.500Z,11.90
2022-12-16T22:38:28.029Z,11.93
2022-12-16T22:41:14.445Z,11.25
2022-12-16T22:44:00.479Z,11.13
2022-12-16T22:47:01.115Z,10.50
2022-12-16T22:49:48.222Z,12.55
2022-12-16T22:52:34.206Z,12.27
2022-12-16T22:55:19.773Z,11.40
2022-12-16T22:58:05.440Z,11.35
2022-12-16T23:00:52.065Z,11.48
2022-12-16T23:03:38.146Z,11.15
2022-12-16T23:06:26.386Z,12.68
2022-12-16T23:09:11.938Z,11.30
2022-12-16T23:11:59.549Z,11.65
2022-12-16T23:14:45.657Z,11.82
2022-12-16T23:17:31.519Z,12.02
2022-12-16T23:20:17.655Z,11.77
2022-12-16T23:23:04.936Z,13.00
2022-12-16T23:25:50.883Z,10.68
2022-12-16T23:28:37.455Z,11.63
2022-12-16T23:31:23.445Z,10.07
2022-12-16T23:34:09.239Z,12.18
2022-12-16T23:36:55.840Z,10.07
2022-12-16T23:39:43.726Z,11.90
2022-12-16T23:42:29.377Z,12.35
2022-12-16T23:45:15.178Z,10.95
2022-12-16T23:48:00.813Z,12.30
2022-12-16T23:50:46.362Z,11.77
2022-12-16T23:53:31.928Z,11.48
2022-12-16T23:56:20.548Z,12.13
2022-12-16T23:59:06.434Z,11.80
